createdAt,value
2018-09-19T00:01:17.061Z,22.50
2018-09-19T00:03:44.504Z,22.46
2018-09-19T00:06:11.903Z,22.42
2018-09-19T00:08:39.337Z,22.42
2018-09-19T00:11:06.772Z,22.34
2018-09-19T00:13:34.238Z,22.32
2018-09-19T00:16:02.364Z,22.18
2018-09-19T00:18:29.821Z,22.02
2018-09-19T00:20:57.330Z,21.90
2018-09-19T00:23:24.796Z,21.85
2018-09-19T00:25:52.248Z,21.83
2018-09-19T00:28:19.707Z,21.79
2018-09-19T00:30:47.161Z,21.76
2018-09-19T00:33:14.612Z,21.80
2018-09-19T00:35:42.049Z,21.80
2018-09-19T00:38:09.475Z,21.67
2018-09-19T00:40:36.973Z,21.55
2018-09-19T00:43:04.594Z,21.46
2018-09-19T00:45:32.065Z,21.38
2018-09-19T00:47:59.492Z,21.39
2018-09-19T00:50:26.963Z,21.44
2018-09-19T00:52:54.409Z,21.45
2018-09-19T00:55:21.822Z,21.49
2018-09-19T00:57:49.216Z,21.40
2018-09-19T01:00:17.067Z,21.32
2018-09-19T01:02:44.538Z,21.29
2018-09-19T01:05:11.999Z,21.27
2018-09-19T01:07:39.469Z,21.30
2018-09-19T01:10:06.922Z,21.42
2018-09-19T01:12:34.347Z,21.48
2018-09-19T01:15:01.786Z,21.36
2018-09-19T01:17:29.242Z,21.27
2018-09-19T01:19:56.706Z,21.27
2018-09-19T01:22:24.106Z,21.29
2018-09-19T01:24:51.631Z,21.33
2018-09-19T01:27:19.144Z,21.33
2018-09-19T01:29:46.616Z,21.29
2018-09-19T01:32:14.095Z,21.31
2018-09-19T01:34:41.556Z,21.35
2018-09-19T01:37:08.950Z,21.29
2018-09-19T01:39:36.685Z,21.31
2018-09-19T01:42:04.177Z,21.40
2018-09-19T01:44:31.602Z,21.46
2018-09-19T01:46:59.051Z,21.39
2018-09-19T01:49:26.566Z,21.33
2018-09-19T01:51:54.840Z,21.31
2018-09-19T01:54:22.265Z,21.16
2018-09-19T01:56:49.712Z,20.92
2018-09-19T01:59:17.115Z,20.73
2018-09-19T02:01:44.520Z,20.62
2018-09-19T02:04:11.963Z,20.69
2018-09-19T02:06:39.495Z,20.76
2018-09-19T02:09:06.972Z,20.80
2018-09-19T02:11:34.432Z,20.79
2018-09-19T02:14:01.832Z,20.76
2018-09-19T02:16:29.352Z,20.82
2018-09-19T02:18:56.772Z,20.86
2018-09-19T02:21:24.241Z,20.94
2018-09-19T02:23:51.715Z,20.89
2018-09-19T02:26:19.249Z,20.86
2018-09-19T02:28:46.708Z,20.84
2018-09-19T02:31:14.187Z,20.81
2018-09-19T02:33:41.586Z,20.83
2018-09-19T02:36:09.048Z,20.88
2018-09-19T02:38:36.508Z,20.92
2018-09-19T02:41:03.953Z,20.93
2018-09-19T02:43:31.459Z,20.89
2018-09-19T02:45:58.943Z,20.82
2018-09-19T02:48:26.385Z,20.81
2018-09-19T02:50:53.903Z,20.79
2018-09-19T02:53:21.389Z,20.79
2018-09-19T02:55:48.830Z,20.74
2018-09-19T02:58:16.279Z,20.53
2018-09-19T03:00:43.722Z,20.38
2018-09-19T03:03:11.120Z,20.28
2018-09-19T03:05:38.907Z,20.24
2018-09-19T03:08:06.373Z,20.33
2018-09-19T03:10:33.894Z,20.34
2018-09-19T03:13:01.389Z,20.49
2018-09-19T03:15:28.802Z,20.53
2018-09-19T03:17:56.270Z,20.62
2018-09-19T03:20:23.684Z,20.68
2018-09-19T03:22:51.146Z,20.71
2018-09-19T03:25:19.261Z,20.71
2018-09-19T03:27:46.732Z,20.75
2018-09-19T03:30:14.146Z,20.80
2018-09-19T03:32:41.621Z,20.86
2018-09-19T03:35:09.872Z,20.90
2018-09-19T03:37:37.497Z,20.90
2018-09-19T03:40:04.964Z,20.92
2018-09-19T03:42:32.408Z,20.97
2018-09-19T03:47:33.562Z,21.01
2018-09-19T03:50:01.064Z,20.93
2018-09-19T03:52:28.476Z,20.95
2018-09-19T03:54:55.910Z,21.00
2018-09-19T03:57:23.432Z,21.04
2018-09-19T03:59:50.866Z,21.09
2018-09-19T04:02:18.361Z,21.10
2018-09-19T04:04:45.810Z,21.11
2018-09-19T04:07:13.236Z,21.05
2018-09-19T04:09:40.701Z,20.93
2018-09-19T04:12:08.158Z,20.86
2018-09-19T04:14:35.722Z,20.77
2018-09-19T04:17:03.201Z,20.79
2018-09-19T04:19:30.653Z,20.82
2018-09-19T04:21:58.143Z,20.88
2018-09-19T04:24:25.642Z,20.84
2018-09-19T04:26:53.108Z,20.72
2018-09-19T04:29:20.558Z,20.63
2018-09-19T04:31:48.055Z,20.68
2018-09-19T04:34:15.462Z,20.70
2018-09-19T04:36:42.889Z,20.74
2018-09-19T04:39:10.340Z,20.78
2018-09-19T04:44:11.710Z,20.72
2018-09-19T04:46:39.215Z,20.77
2018-09-19T04:49:06.785Z,20.69
2018-09-19T04:51:34.377Z,20.61
2018-09-19T04:54:01.802Z,20.62
2018-09-19T04:56:29.384Z,20.70
2018-09-19T04:58:56.857Z,20.71
2018-09-19T05:01:24.303Z,20.76
2018-09-19T05:03:51.768Z,20.80
2018-09-19T05:06:19.323Z,20.89
2018-09-19T05:08:46.732Z,20.96
2018-09-19T05:11:14.275Z,21.00
2018-09-19T05:13:42.154Z,21.01
2018-09-19T05:16:09.628Z,21.01
2018-09-19T05:18:37.070Z,20.95
2018-09-19T05:21:04.671Z,20.77
2018-09-19T05:23:32.102Z,20.65
2018-09-19T05:25:59.531Z,20.52
2018-09-19T05:28:27.056Z,20.43
2018-09-19T05:30:54.514Z,20.55
2018-09-19T05:33:23.154Z,20.58
2018-09-19T05:35:50.610Z,20.56
2018-09-19T05:38:18.162Z,20.47
2018-09-19T05:40:45.768Z,20.47
2018-09-19T05:43:14.183Z,20.66
2018-09-19T05:45:41.611Z,21.08
2018-09-19T05:48:09.056Z,21.33
2018-09-19T05:50:36.512Z,21.47
2018-09-19T05:53:04.065Z,21.37
2018-09-19T05:55:31.667Z,21.29
2018-09-19T05:57:59.983Z,21.18
2018-09-19T06:00:27.465Z,21.06
2018-09-19T06:02:54.983Z,21.05
2018-09-19T06:05:22.424Z,21.09
2018-09-19T06:07:49.931Z,21.13
2018-09-19T06:10:17.487Z,21.12
2018-09-19T06:12:44.937Z,21.14
2018-09-19T06:15:12.401Z,21.08
2018-09-19T06:17:39.867Z,21.17
2018-09-19T06:20:07.500Z,21.28
2018-09-19T06:22:34.917Z,21.36
2018-09-19T06:25:02.321Z,21.48
2018-09-19T06:27:30.160Z,21.52
2018-09-19T06:29:57.570Z,21.58
2018-09-19T06:32:25.866Z,21.64
2018-09-19T06:34:53.389Z,21.71
2018-09-19T06:37:20.885Z,21.77
2018-09-19T06:39:48.475Z,21.82
2018-09-19T06:42:15.902Z,21.88
2018-09-19T06:44:43.456Z,21.96
2018-09-19T06:47:10.915Z,22.01
2018-09-19T06:49:38.375Z,22.02
2018-09-19T06:52:05.901Z,22.13
2018-09-19T06:54:33.348Z,22.27
2018-09-19T06:57:00.886Z,22.41
2018-09-19T06:59:28.447Z,22.94
2018-09-19T07:01:55.864Z,23.50
2018-09-19T07:04:23.327Z,23.43
2018-09-19T07:06:51.153Z,23.10
2018-09-19T07:09:18.591Z,22.86
2018-09-19T07:11:46.155Z,22.73
2018-09-19T07:14:13.762Z,22.57
2018-09-19T07:16:41.313Z,22.54
2018-09-19T07:19:08.945Z,22.49
2018-09-19T07:21:36.472Z,22.46
2018-09-19T07:24:05.729Z,22.46
2018-09-19T07:26:33.244Z,22.52
2018-09-19T07:29:00.691Z,22.65
2018-09-19T07:31:28.777Z,24.05
2018-09-19T07:33:56.249Z,26.01
2018-09-19T07:36:23.694Z,27.73
2018-09-19T07:38:50.677Z,28.01
2018-09-19T07:41:17.742Z,28.28
2018-09-19T07:43:44.728Z,28.18
2018-09-19T07:46:11.801Z,27.30
2018-09-19T07:48:38.776Z,26.48
2018-09-19T07:51:05.821Z,26.26
2018-09-19T07:53:33.931Z,26.95
2018-09-19T07:56:01.917Z,27.69
2018-09-19T07:58:28.945Z,28.52
2018-09-19T08:00:56.150Z,29.63
2018-09-19T08:03:23.028Z,30.54
2018-09-19T08:05:50.043Z,31.07
2018-09-19T08:08:17.128Z,30.88
2018-09-19T08:10:44.377Z,30.79
2018-09-19T08:13:11.396Z,30.85
2018-09-19T08:15:38.431Z,30.95
2018-09-19T08:18:05.872Z,30.95
2018-09-19T08:20:33.119Z,31.63
2018-09-19T08:23:00.585Z,32.11
2018-09-19T08:25:28.019Z,32.55
2018-09-19T08:27:55.023Z,32.56
2018-09-19T08:30:22.502Z,32.52
2018-09-19T08:32:50.038Z,32.59
2018-09-19T08:35:17.058Z,32.86
2018-09-19T08:37:44.560Z,33.13
2018-09-19T08:40:11.975Z,33.26
2018-09-19T08:42:39.500Z,33.21
2018-09-19T08:45:07.061Z,33.18
2018-09-19T08:47:34.670Z,32.72
2018-09-19T08:50:02.247Z,32.17
2018-09-19T08:52:29.865Z,32.11
2018-09-19T08:54:57.310Z,31.69
2018-09-19T08:57:24.832Z,31.27
2018-09-19T08:59:52.680Z,31.96
2018-09-19T09:02:20.192Z,32.08
2018-09-19T09:04:47.606Z,32.43
2018-09-19T09:07:15.154Z,32.43
2018-09-19T09:09:42.623Z,32.03
2018-09-19T09:12:10.160Z,31.01
2018-09-19T09:14:37.588Z,30.09
2018-09-19T09:17:05.138Z,30.10
2018-09-19T09:19:32.716Z,29.83
2018-09-19T09:22:00.284Z,29.74
2018-09-19T09:24:27.757Z,29.22
2018-09-19T09:26:55.317Z,28.85
2018-09-19T09:29:22.687Z,28.91
2018-09-19T09:31:50.194Z,28.98
2018-09-19T09:34:17.683Z,28.87
2018-09-19T09:36:45.160Z,28.90
2018-09-19T09:39:12.784Z,28.79
2018-09-19T09:41:40.552Z,28.62
2018-09-19T09:44:08.025Z,28.54
2018-09-19T09:46:35.446Z,28.52
2018-09-19T09:49:02.947Z,28.76
2018-09-19T09:51:30.458Z,29.02
2018-09-19T09:53:57.948Z,28.85
2018-09-19T09:56:25.407Z,29.12
2018-09-19T09:58:53.022Z,29.21
2018-09-19T10:01:20.433Z,29.70
2018-09-19T10:03:47.904Z,29.69
2018-09-19T10:06:15.449Z,29.51
2018-09-19T10:08:42.868Z,29.20
2018-09-19T10:11:10.320Z,29.24
2018-09-19T10:13:37.834Z,29.10
2018-09-19T10:16:04.915Z,29.15
2018-09-19T10:18:32.446Z,29.48
2018-09-19T10:20:59.863Z,29.74
2018-09-19T10:23:27.368Z,29.86
2018-09-19T10:25:54.988Z,29.99
2018-09-19T10:28:22.494Z,29.91
2018-09-19T10:30:50.077Z,29.86
2018-09-19T10:33:17.628Z,30.03
2018-09-19T10:35:45.037Z,30.10
2018-09-19T10:38:12.531Z,30.02
2018-09-19T10:40:40.099Z,29.92
2018-09-19T10:43:07.559Z,30.05
2018-09-19T10:45:35.002Z,30.26
2018-09-19T10:48:02.461Z,30.31
2018-09-19T10:50:30.025Z,30.10
2018-09-19T10:52:57.528Z,29.95
2018-09-19T10:55:25.182Z,30.07
2018-09-19T10:57:52.614Z,30.27
2018-09-19T11:00:20.085Z,30.41
2018-09-19T11:02:47.568Z,30.76
2018-09-19T11:05:15.129Z,30.88
2018-09-19T11:07:42.614Z,31.17
2018-09-19T11:10:10.226Z,31.36
2018-09-19T11:12:37.850Z,31.30
2018-09-19T11:15:05.644Z,31.17
2018-09-19T11:17:33.334Z,31.22
2018-09-19T11:20:00.807Z,31.37
2018-09-19T11:22:29.255Z,31.57
2018-09-19T11:24:56.702Z,31.77
2018-09-19T11:27:24.164Z,31.88
2018-09-19T11:29:51.634Z,31.75
2018-09-19T11:32:19.106Z,31.46
2018-09-19T11:34:46.696Z,31.41
2018-09-19T11:37:14.131Z,31.42
2018-09-19T11:39:41.637Z,31.45
2018-09-19T11:42:09.170Z,31.34
2018-09-19T11:44:36.713Z,31.46
2018-09-19T11:47:04.193Z,31.49
2018-09-19T11:49:31.894Z,31.67
2018-09-19T11:51:59.356Z,31.67
2018-09-19T11:54:27.586Z,31.56
2018-09-19T11:56:55.566Z,31.50
2018-09-19T11:59:23.239Z,31.53
2018-09-19T12:01:50.783Z,31.59
2018-09-19T12:04:18.305Z,31.98
2018-09-19T12:06:47.982Z,32.19
2018-09-19T12:09:15.462Z,31.96
2018-09-19T12:11:43.040Z,31.96
2018-09-19T12:14:10.748Z,32.23
2018-09-19T12:16:38.270Z,32.36
2018-09-19T12:19:05.674Z,32.33
2018-09-19T12:21:33.214Z,32.54
2018-09-19T12:24:00.788Z,33.04
2018-09-19T12:26:28.263Z,33.07
2018-09-19T12:28:56.046Z,32.70
2018-09-19T12:31:23.580Z,32.46
2018-09-19T12:33:51.175Z,32.28
2018-09-19T12:36:18.693Z,32.51
2018-09-19T12:38:47.215Z,32.85
2018-09-19T12:41:14.626Z,32.57
2018-09-19T12:43:42.168Z,32.43
2018-09-19T12:46:10.291Z,32.41
2018-09-19T12:48:37.790Z,32.40
2018-09-19T12:51:05.264Z,32.62
2018-09-19T12:53:32.737Z,32.66
2018-09-19T12:56:01.534Z,32.45
2018-09-19T12:58:28.931Z,32.40
2018-09-19T13:00:56.583Z,32.07
2018-09-19T13:03:24.060Z,32.15
2018-09-19T13:05:51.568Z,32.38
2018-09-19T13:08:19.115Z,32.59
2018-09-19T13:10:46.711Z,32.52
2018-09-19T13:13:14.254Z,32.45
2018-09-19T13:15:42.572Z,32.46
2018-09-19T13:18:09.989Z,32.48
2018-09-19T13:20:37.509Z,32.46
2018-09-19T13:23:04.917Z,32.47
2018-09-19T13:25:32.458Z,32.44
2018-09-19T13:27:59.892Z,32.46
2018-09-19T13:30:27.387Z,32.42
2018-09-19T13:32:54.924Z,32.25
2018-09-19T13:35:22.423Z,32.11
2018-09-19T13:37:49.880Z,32.09
2018-09-19T13:40:17.506Z,32.07
2018-09-19T13:42:46.108Z,32.08
2018-09-19T13:45:13.657Z,31.79
2018-09-19T13:47:41.516Z,31.54
2018-09-19T13:50:08.987Z,30.96
2018-09-19T13:52:36.576Z,30.44
2018-09-19T13:55:04.038Z,30.05
2018-09-19T13:57:31.739Z,29.56
2018-09-19T13:59:59.572Z,29.19
2018-09-19T14:02:27.182Z,29.06
2018-09-19T14:04:54.772Z,28.91
2018-09-19T14:07:22.341Z,28.86
2018-09-19T14:09:49.404Z,28.80
2018-09-19T14:12:16.541Z,28.65
2018-09-19T14:14:55.005Z,28.59
2018-09-19T14:17:22.012Z,28.66
2018-09-19T14:19:49.535Z,28.72
2018-09-19T14:22:17.078Z,28.75
2018-09-19T14:24:44.724Z,28.73
2018-09-19T14:27:12.191Z,29.05
2018-09-19T14:29:39.674Z,29.92
2018-09-19T14:32:07.174Z,30.70
2018-09-19T14:34:34.753Z,30.91
2018-09-19T14:37:02.336Z,30.27
2018-09-19T14:39:29.780Z,29.89
2018-09-19T14:41:57.223Z,29.60
2018-09-19T14:44:24.791Z,29.34
2018-09-19T14:46:52.315Z,29.18
2018-09-19T14:49:19.792Z,29.08
2018-09-19T14:51:47.274Z,29.15
2018-09-19T14:54:14.726Z,29.44
2018-09-19T14:56:42.212Z,29.88
2018-09-19T14:59:09.689Z,30.25
2018-09-19T15:01:37.184Z,30.76
2018-09-19T15:04:04.812Z,31.31
2018-09-19T15:06:32.295Z,31.81
2018-09-19T15:09:00.346Z,31.62
2018-09-19T15:11:27.849Z,31.59
2018-09-19T15:13:55.297Z,31.68
2018-09-19T15:16:23.412Z,31.85
2018-09-19T15:18:50.906Z,31.98
2018-09-19T15:21:18.391Z,31.84
2018-09-19T15:23:45.854Z,31.73
2018-09-19T15:26:14.026Z,31.58
2018-09-19T15:28:41.511Z,31.53
2018-09-19T15:31:08.978Z,31.60
2018-09-19T15:33:36.438Z,31.55
2018-09-19T15:36:03.897Z,31.42
2018-09-19T15:38:31.342Z,31.39
2018-09-19T15:40:58.831Z,31.22
2018-09-19T15:43:26.297Z,31.03
2018-09-19T15:45:53.822Z,31.05
2018-09-19T15:48:21.466Z,31.18
2018-09-19T15:50:48.957Z,31.27
2018-09-19T15:53:16.504Z,31.16
2018-09-19T15:55:43.952Z,30.98
2018-09-19T15:58:11.550Z,30.77
2018-09-19T16:00:39.018Z,30.52
2018-09-19T16:03:06.493Z,30.32
2018-09-19T16:05:33.952Z,30.16
2018-09-19T16:08:01.428Z,29.89
2018-09-19T16:10:29.015Z,29.80
2018-09-19T16:12:56.472Z,29.65
2018-09-19T16:15:24.137Z,29.49
2018-09-19T16:17:51.552Z,29.25
2018-09-19T16:20:18.992Z,29.09
2018-09-19T16:22:46.468Z,29.03
2018-09-19T16:25:14.035Z,28.87
2018-09-19T16:30:14.332Z,28.79
2018-09-19T16:32:41.826Z,28.75
2018-09-19T16:35:09.353Z,28.78
2018-09-19T16:37:36.859Z,28.77
2018-09-19T16:40:05.064Z,28.80
2018-09-19T16:42:32.553Z,28.74
2018-09-19T16:45:00.037Z,28.65
2018-09-19T16:47:27.528Z,28.69
2018-09-19T16:49:55.151Z,28.77
2018-09-19T16:52:22.602Z,28.96
2018-09-19T16:54:50.140Z,29.04
2018-09-19T16:57:17.626Z,29.12
2018-09-19T16:59:45.039Z,29.06
2018-09-19T17:02:12.500Z,28.91
2018-09-19T17:04:39.960Z,28.86
2018-09-19T17:07:07.496Z,28.87
2018-09-19T17:09:35.155Z,28.87
2018-09-19T17:12:02.701Z,28.76
2018-09-19T17:14:30.272Z,28.61
2018-09-19T17:16:57.819Z,28.55
2018-09-19T17:19:25.439Z,28.50
2018-09-19T17:21:52.971Z,28.46
2018-09-19T17:24:20.510Z,28.42
2018-09-19T17:26:48.087Z,28.39
2018-09-19T17:29:15.688Z,28.32
2018-09-19T17:31:43.237Z,28.19
2018-09-19T17:34:10.639Z,28.16
2018-09-19T17:36:38.328Z,28.11
2018-09-19T17:39:06.084Z,28.06
2018-09-19T17:41:33.548Z,27.91
2018-09-19T17:44:01.053Z,27.80
2018-09-19T17:46:28.592Z,27.72
2018-09-19T17:48:56.049Z,27.65
2018-09-19T17:51:23.556Z,27.58
2018-09-19T17:53:51.739Z,27.52
2018-09-19T17:56:19.225Z,27.45
2018-09-19T17:58:46.669Z,27.40
2018-09-19T18:01:14.120Z,27.38
2018-09-19T18:03:41.563Z,27.39
2018-09-19T18:06:09.214Z,27.36
2018-09-19T18:08:36.651Z,27.32
2018-09-19T18:11:04.103Z,27.27
2018-09-19T18:13:32.032Z,27.17
2018-09-19T18:15:59.495Z,27.09
2018-09-19T18:18:27.023Z,27.05
2018-09-19T18:20:54.576Z,27.05
2018-09-19T18:23:22.043Z,27.03
2018-09-19T18:25:49.489Z,26.98
2018-09-19T18:28:16.989Z,26.89
2018-09-19T18:30:44.473Z,26.83
2018-09-19T18:33:11.940Z,26.77
2018-09-19T18:35:40.487Z,26.75
2018-09-19T18:38:08.015Z,26.74
2018-09-19T18:40:35.474Z,26.70
2018-09-19T18:43:02.936Z,26.71
2018-09-19T18:45:30.708Z,26.68
2018-09-19T18:47:57.695Z,26.62
2018-09-19T18:50:25.170Z,26.54
2018-09-19T18:52:52.680Z,26.47
2018-09-19T18:55:19.652Z,26.46
2018-09-19T18:57:47.125Z,26.46
2018-09-19T19:00:14.604Z,26.46
2018-09-19T19:02:42.036Z,26.47
2018-09-19T19:05:09.466Z,26.45
2018-09-19T19:07:37.078Z,26.34
2018-09-19T19:10:04.547Z,26.25
2018-09-19T19:12:31.999Z,26.19
2018-09-19T19:14:59.500Z,26.13
2018-09-19T19:17:26.933Z,26.08
2018-09-19T19:19:54.430Z,26.04
2018-09-19T19:22:21.867Z,25.98
2018-09-19T19:24:49.388Z,25.85
2018-09-19T19:27:16.846Z,25.82
2018-09-19T19:29:44.247Z,25.83
2018-09-19T19:32:11.741Z,25.80
2018-09-19T19:34:39.226Z,25.78
2018-09-19T19:37:06.722Z,25.76
2018-09-19T19:39:34.179Z,25.71
2018-09-19T19:42:02.078Z,25.69
2018-09-19T19:44:30.792Z,25.66
2018-09-19T19:46:58.274Z,25.60
2018-09-19T19:49:25.691Z,25.53
2018-09-19T19:51:53.233Z,25.41
2018-09-19T19:54:20.723Z,25.38
2018-09-19T19:56:48.216Z,25.36
2018-09-19T19:59:15.814Z,25.30
2018-09-19T20:01:43.281Z,25.23
2018-09-19T20:04:10.727Z,25.18
2018-09-19T20:06:38.254Z,25.16
2018-09-19T20:09:05.729Z,25.12
2018-09-19T20:11:33.177Z,25.07
2018-09-19T20:14:00.722Z,25.03
2018-09-19T20:16:27.722Z,24.98
2018-09-19T20:18:55.784Z,24.99
2018-09-19T20:21:23.225Z,24.99
2018-09-19T20:23:50.811Z,24.93
2018-09-19T20:26:17.847Z,24.88
2018-09-19T20:28:45.325Z,24.78
2018-09-19T20:31:12.783Z,24.65
2018-09-19T20:33:40.213Z,24.75
2018-09-19T20:36:07.660Z,24.75
2018-09-19T20:38:35.113Z,24.72
2018-09-19T20:41:02.684Z,24.71
2018-09-19T20:43:30.179Z,24.58
2018-09-19T20:45:57.705Z,24.55
2018-09-19T20:48:25.194Z,24.49
2018-09-19T20:50:52.704Z,24.45
2018-09-19T20:53:20.158Z,24.35
2018-09-19T20:55:47.583Z,24.26
2018-09-19T20:58:15.287Z,24.25
2018-09-19T21:00:42.724Z,24.15
2018-09-19T21:03:10.219Z,24.11
2018-09-19T21:05:37.700Z,24.07
2018-09-19T21:08:05.164Z,24.10
2018-09-19T21:10:33.255Z,24.14
2018-09-19T21:13:00.720Z,24.13
2018-09-19T21:15:28.154Z,24.04
2018-09-19T21:17:55.692Z,23.96
2018-09-19T21:20:23.111Z,23.82
2018-09-19T21:22:50.622Z,23.73
2018-09-19T21:25:18.045Z,23.72
2018-09-19T21:27:45.483Z,23.64
2018-09-19T21:30:12.973Z,23.53
2018-09-19T21:32:40.455Z,23.50
2018-09-19T21:35:07.898Z,23.53
2018-09-19T21:37:35.432Z,23.42
2018-09-19T21:40:02.936Z,23.29
2018-09-19T21:42:30.351Z,23.24
2018-09-19T21:44:57.769Z,23.23
2018-09-19T21:47:25.189Z,23.23
2018-09-19T21:49:52.654Z,23.20
2018-09-19T21:52:20.137Z,23.18
2018-09-19T21:54:47.608Z,23.13
2018-09-19T21:57:15.457Z,23.11
2018-09-19T21:59:42.894Z,23.10
2018-09-19T22:02:10.378Z,23.09
2018-09-19T22:04:37.783Z,23.10
2018-09-19T22:07:05.253Z,23.02
2018-09-19T22:09:32.763Z,22.88
2018-09-19T22:12:00.255Z,22.80
2018-09-19T22:14:27.740Z,22.81
2018-09-19T22:16:55.517Z,22.79
2018-09-19T22:19:22.977Z,22.79
2018-09-19T22:21:50.520Z,22.78
2018-09-19T22:24:18.011Z,22.70
2018-09-19T22:26:45.426Z,22.50
2018-09-19T22:29:12.877Z,22.43
2018-09-19T22:31:40.527Z,22.41
2018-09-19T22:34:07.969Z,22.40
2018-09-19T22:36:35.420Z,22.23
2018-09-19T22:39:02.962Z,22.08
2018-09-19T22:41:31.418Z,22.01
2018-09-19T22:43:58.896Z,22.02
2018-09-19T22:46:26.551Z,22.06
2018-09-19T22:48:54.046Z,22.10
2018-09-19T22:51:21.551Z,22.13
2018-09-19T22:53:49.039Z,22.18
2018-09-19T22:56:16.490Z,22.25
2018-09-19T22:58:43.904Z,22.23
2018-09-19T23:01:11.389Z,22.24
2018-09-19T23:03:38.853Z,22.27
2018-09-19T23:06:06.259Z,22.24
2018-09-19T23:08:33.787Z,22.23
2018-09-19T23:11:01.230Z,22.24
2018-09-19T23:13:28.752Z,22.26
2018-09-19T23:15:56.229Z,22.25
2018-09-19T23:18:23.742Z,22.25
2018-09-19T23:20:51.192Z,22.26
2018-09-19T23:23:18.643Z,22.24
2018-09-19T23:25:46.041Z,22.23
2018-09-19T23:28:14.170Z,22.16
2018-09-19T23:30:41.599Z,22.14
2018-09-19T23:33:09.085Z,22.04
2018-09-19T23:35:36.511Z,21.96
2018-09-19T23:38:03.996Z,21.95
2018-09-19T23:40:31.464Z,21.91
2018-09-19T23:42:58.956Z,21.83
2018-09-19T23:45:26.449Z,21.76
2018-09-19T23:47:53.953Z,21.79
2018-09-19T23:50:21.444Z,21.78
2018-09-19T23:52:48.916Z,21.74
2018-09-19T23:55:16.825Z,21.74
2018-09-19T23:57:44.325Z,21.67
